Minneapolis, MN (55431)

10:42 AM CST on November 26, 2014 (GMT -0600)
South Central Bloomington | Change Station
CLOSE
Current Station
Personal Weather Station
Location: Bloomington, MN
Elevation: 800 ft
Nearby Weather Stations

Elev 800 ft 44.81 °N, 93.31 °W | Updated 1 second ago

Snow
Snow Freezing Fog
24.7 °F
Feels Like 25 °F
N
2.0
Wind Variable Wind from NE
Gusts 8.0 mph

Today
High -- | Low -- °F
--% Chance of Precip.
Yesterday
High -- | Low -- °F
Precip. -- in
7:24 AM 4:36 PM
Waxing Crescent, 21% visible
Pressure 30.18 in
Visibility 0.5 miles
Clouds
Windchill 25 °F
Dew Point 22 °F
Humidity 90%
Rainfall 0.13 in
Snow Depth Not available.
UV Not available.
Pollen .10 out of 12
Air Quality Not available.
Flu Activity Not available.
SPECI KMSP 261618Z 01006KT 1/2SM R30L/2800V5000FT SN FZFG VV012 M05/M07 A3018 RMK AO2 P0002 T10501067

More Conditions Fewer Conditions

Pressure 30.18 in
Visibility 0.5 miles
Clouds
Windchill 25 °F
Dew Point 22 °F
Humidity 90%
Rainfall 0.13 in
Snow Depth Not available.
UV Not available.
Pollen .10 out of 12
Air Quality Not available.
Flu Activity Not available.
SPECI KMSP 261618Z 01006KT 1/2SM R30L/2800V5000FT SN FZFG VV012 M05/M07 A3018 RMK AO2 P0002 T10501067

More Conditions Fewer Conditions

10-Day Weather Forecast

Almanac

Astronomy

Nov. 26, 2014 Rise Set
Actual Time
Civil Twilight
Nautical Twilight
Astronomical Twilight
Moon
Length of Visible Light
Length of Day
Tomorrow will be .
, % of the Moon is Illuminated

Today's Extremes

State Highs State Lows

Community

WunderPhotos

Upload Photos

1,773,793 photos uploaded!

WunderBlogs® & News

Nearby

Air Quality

  Air Quality AQ Index Pollutant
Not available.

Snow Depth

Station Depth Elevation

Earthquake Activity

City Distance Mag. Time & Date
Minimum magnitude displayed is 2.5.

Coastal Water Temperatures

Place Temperature

Nearby Weather Stations